createdAt,value
2022-08-03T00:00:57.161Z,43.60
2022-08-03T00:06:04.825Z,42.80
2022-08-03T00:11:08.807Z,40.80
2022-08-03T00:16:16.267Z,42.90
2022-08-03T00:21:20.044Z,38.10
2022-08-03T00:26:24.407Z,38.70
2022-08-03T00:31:45.773Z,43.00
2022-08-03T00:36:51.846Z,42.40
2022-08-03T00:41:55.462Z,42.10
2022-08-03T00:46:59.095Z,44.70
2022-08-03T00:52:09.665Z,43.50
2022-08-03T00:57:13.850Z,38.30
2022-08-03T01:02:18.022Z,36.80
2022-08-03T01:07:37.296Z,37.40
2022-08-03T01:12:48.835Z,34.70
2022-08-03T01:17:59.839Z,34.80
2022-08-03T01:23:39.473Z,41.20
2022-08-03T01:29:01.705Z,39.60
2022-08-03T01:34:14.627Z,39.90
2022-08-03T01:39:21.388Z,38.90
2022-08-03T01:49:38.770Z,36.00
2022-08-03T01:54:45.400Z,40.60
2022-08-03T02:04:56.469Z,39.00
2022-08-03T02:10:02.724Z,40.40
2022-08-03T02:15:09.495Z,41.10
2022-08-03T02:20:14.633Z,39.20
2022-08-03T02:25:18.671Z,38.50
2022-08-03T02:30:25.224Z,37.70
2022-08-03T02:35:32.768Z,38.30
2022-08-03T02:40:38.541Z,32.20
2022-08-03T02:45:46.949Z,40.30
2022-08-03T02:50:54.220Z,34.70
2022-08-03T02:55:59.553Z,35.50
2022-08-03T03:01:03.744Z,31.40
2022-08-03T03:06:10.081Z,32.10
2022-08-03T03:11:17.501Z,30.00
2022-08-03T03:16:22.478Z,33.20
2022-08-03T03:21:27.799Z,33.90
2022-08-03T03:26:31.625Z,28.70
2022-08-03T03:31:36.694Z,34.20
2022-08-03T03:36:40.512Z,25.80
2022-08-03T03:41:44.549Z,34.70
2022-08-03T03:46:48.318Z,36.60
2022-08-03T03:51:54.914Z,38.70
2022-08-03T03:56:58.525Z,39.20
2022-08-03T04:02:02.122Z,41.90
2022-08-03T04:07:24.560Z,37.70
2022-08-03T04:12:30.746Z,41.20
2022-08-03T04:17:35.502Z,37.60
2022-08-03T04:22:41.554Z,40.10
2022-08-03T04:28:07.761Z,43.50
2022-08-03T04:33:11.385Z,39.90
2022-08-03T04:38:19.887Z,41.20
2022-08-03T04:48:27.649Z,37.50
2022-08-03T04:53:32.171Z,50.60
2022-08-03T04:58:35.834Z,41.90
2022-08-03T05:03:40.032Z,46.20
2022-08-03T05:08:46.857Z,38.30
2022-08-03T05:13:52.597Z,38.70
2022-08-03T05:18:56.217Z,41.40
2022-08-03T05:23:59.740Z,40.40
2022-08-03T05:29:03.468Z,31.30
2022-08-03T05:34:08.115Z,35.70
2022-08-03T05:39:11.688Z,42.50
2022-08-03T05:44:16.192Z,40.90
2022-08-03T05:49:22.296Z,34.30
2022-08-03T05:54:26.202Z,41.80
2022-08-03T05:59:53.848Z,36.80
2022-08-03T06:05:03.208Z,34.80
2022-08-03T06:10:36.328Z,37.60
2022-08-03T06:15:33.078Z,33.60
2022-08-03T06:20:36.808Z,35.50
2022-08-03T06:25:41.452Z,31.10
2022-08-03T06:30:45.276Z,37.80
2022-08-03T06:35:49.219Z,35.40
2022-08-03T06:40:52.840Z,38.30
2022-08-03T06:45:56.452Z,35.40
2022-08-03T06:51:00.078Z,31.30
2022-08-03T06:56:05.592Z,34.10
2022-08-03T07:01:09.307Z,32.30
2022-08-03T07:06:13.705Z,37.10
2022-08-03T07:11:18.340Z,35.00
2022-08-03T07:16:24.233Z,40.30
2022-08-03T07:21:28.029Z,41.00
2022-08-03T07:26:31.783Z,30.90
2022-08-03T07:31:35.351Z,31.60
2022-08-03T07:36:39.379Z,39.00
2022-08-03T07:41:43.372Z,35.80
2022-08-03T07:46:47.444Z,35.00
2022-08-03T07:52:11.338Z,34.30
2022-08-03T07:57:15.136Z,25.80
2022-08-03T08:02:19.252Z,30.00
2022-08-03T08:07:25.570Z,28.80
2022-08-03T08:12:29.575Z,36.80
2022-08-03T08:17:42.575Z,24.20
2022-08-03T08:22:46.348Z,26.00
2022-08-03T08:28:29.830Z,26.50
2022-08-03T08:33:23.481Z,24.70
2022-08-03T08:38:27.878Z,23.40
2022-08-03T08:43:31.850Z,26.30
2022-08-03T08:48:40.785Z,38.30
2022-08-03T08:53:49.375Z,27.70
2022-08-03T08:58:58.122Z,25.80
2022-08-03T09:04:02.454Z,84.10
2022-08-03T09:09:08.462Z,35.50
2022-08-03T09:14:33.691Z,24.80
2022-08-03T09:19:37.477Z,25.10
2022-08-03T09:25:21.634Z,22.20
2022-08-03T09:30:34.057Z,23.90
2022-08-03T09:35:59.008Z,27.20
2022-08-03T09:41:02.977Z,43.00
2022-08-03T09:46:07.103Z,27.50
2022-08-03T09:51:13.551Z,24.30
2022-08-03T09:56:44.850Z,25.30
2022-08-03T10:01:48.935Z,16.80
2022-08-03T10:07:08.823Z,22.20
2022-08-03T10:12:14.243Z,26.10
2022-08-03T10:17:18.203Z,25.10
2022-08-03T10:22:23.386Z,29.40
2022-08-03T10:27:32.124Z,23.10
2022-08-03T10:32:40.658Z,18.10
2022-08-03T10:37:57.021Z,20.70
2022-08-03T10:43:08.592Z,20.40
2022-08-03T10:48:13.283Z,19.30
2022-08-03T10:53:33.834Z,18.00
2022-08-03T10:58:57.602Z,19.40
2022-08-03T11:04:18.921Z,16.70
2022-08-03T11:09:23.178Z,14.30
2022-08-03T11:14:27.540Z,17.20
2022-08-03T11:19:58.080Z,13.10
2022-08-03T11:25:02.604Z,12.30
2022-08-03T11:30:10.327Z,14.60
2022-08-03T11:35:15.848Z,14.80
2022-08-03T11:40:35.675Z,18.80
2022-08-03T11:45:56.088Z,17.70
2022-08-03T11:51:00.077Z,20.10
2022-08-03T11:56:04.629Z,15.30
2022-08-03T12:01:21.222Z,14.80
2022-08-03T12:06:26.699Z,14.70
2022-08-03T12:11:30.746Z,14.60
2022-08-03T12:16:34.708Z,17.30
2022-08-03T12:21:56.930Z,15.30
2022-08-03T12:27:01.238Z,13.70
2022-08-03T12:32:05.954Z,14.90
2022-08-03T12:37:22.234Z,20.80
2022-08-03T12:42:32.160Z,14.50
2022-08-03T12:47:51.630Z,15.20
2022-08-03T12:52:55.909Z,15.60
2022-08-03T12:58:00.163Z,15.80
2022-08-03T13:03:38.597Z,14.50
2022-08-03T13:08:30.812Z,15.50
2022-08-03T13:13:40.495Z,17.00
2022-08-03T13:18:46.156Z,15.20
2022-08-03T13:23:52.277Z,15.30
2022-08-03T13:28:56.365Z,18.20
2022-08-03T13:34:00.176Z,17.00
2022-08-03T13:39:04.029Z,16.10
2022-08-03T13:44:28.988Z,16.40
2022-08-03T13:49:33.219Z,15.10
2022-08-03T13:54:37.044Z,17.60
2022-08-03T13:59:40.815Z,16.10
2022-08-03T14:04:44.701Z,18.90
2022-08-03T14:09:48.257Z,15.40
2022-08-03T14:14:52.709Z,15.80
2022-08-03T14:19:56.643Z,14.90
2022-08-03T14:25:01.953Z,15.10
2022-08-03T14:30:10.522Z,15.30
2022-08-03T14:35:14.463Z,15.00
2022-08-03T14:40:18.587Z,14.30
2022-08-03T14:45:23.008Z,16.40
2022-08-03T14:50:37.901Z,18.20
2022-08-03T14:55:49.845Z,16.60
2022-08-03T15:00:56.920Z,15.10
2022-08-03T15:06:00.554Z,15.60
2022-08-03T15:11:04.768Z,15.20
2022-08-03T15:16:09.088Z,17.50
2022-08-03T15:21:16.613Z,16.90
2022-08-03T15:26:41.428Z,16.50
2022-08-03T15:31:45.590Z,19.50
2022-08-03T15:36:49.572Z,17.00
2022-08-03T15:41:53.506Z,21.80
2022-08-03T15:46:59.714Z,17.40
2022-08-03T15:52:03.970Z,17.20
2022-08-03T15:57:08.374Z,17.30
2022-08-03T16:02:12.505Z,16.20
2022-08-03T16:07:36.340Z,17.90
2022-08-03T16:12:41.342Z,15.60
2022-08-03T16:17:45.584Z,17.30
2022-08-03T16:22:49.922Z,16.80
2022-08-03T16:28:03.117Z,17.80
2022-08-03T16:33:17.027Z,17.10
2022-08-03T16:38:21.462Z,18.00
2022-08-03T16:43:25.601Z,18.20
2022-08-03T16:48:29.957Z,18.10
2022-08-03T16:54:07.815Z,18.00
2022-08-03T16:58:58.274Z,18.50
2022-08-03T17:04:04.598Z,17.90
2022-08-03T17:09:13.189Z,24.90
2022-08-03T17:14:21.932Z,26.40
2022-08-03T17:19:27.077Z,24.80
2022-08-03T17:24:34.484Z,25.60
2022-08-03T17:29:44.993Z,23.40
2022-08-03T17:34:49.333Z,19.00
2022-08-03T17:39:59.497Z,19.70
2022-08-03T17:45:06.602Z,17.10
2022-08-03T17:55:57.600Z,19.20
2022-08-03T18:02:05.617Z,18.90
2022-08-03T18:06:56.181Z,18.80
2022-08-03T18:12:04.536Z,21.70
2022-08-03T18:17:19.884Z,22.10
2022-08-03T18:22:25.566Z,25.70
2022-08-03T18:27:42.716Z,23.10
2022-08-03T18:33:00.444Z,25.40
2022-08-03T18:38:10.353Z,27.00
2022-08-03T18:43:17.084Z,22.80
2022-08-03T18:48:28.106Z,27.20
2022-08-03T18:54:03.289Z,24.70
2022-08-03T18:59:10.920Z,28.30
2022-08-03T19:04:24.375Z,25.30
2022-08-03T19:09:37.305Z,32.80
2022-08-03T19:14:49.417Z,30.80
2022-08-03T19:19:54.163Z,31.50
2022-08-03T19:25:02.815Z,26.20
2022-08-03T19:30:21.884Z,30.90
2022-08-03T19:35:52.159Z,28.20
2022-08-03T19:40:59.796Z,32.40
2022-08-03T19:46:10.961Z,31.10
2022-08-03T19:51:19.045Z,30.60
2022-08-03T19:56:34.297Z,30.20
2022-08-03T20:01:50.986Z,31.60
2022-08-03T20:06:57.161Z,32.10
2022-08-03T20:12:01.280Z,28.90
2022-08-03T20:17:06.105Z,32.00
2022-08-03T20:22:14.526Z,34.00
2022-08-03T20:27:22.369Z,33.20
2022-08-03T20:32:34.828Z,37.30
2022-08-03T20:37:38.783Z,33.10
2022-08-03T20:42:45.521Z,37.10
2022-08-03T20:47:51.065Z,36.10
2022-08-03T20:52:56.177Z,31.40
2022-08-03T20:58:00.599Z,39.50
2022-08-03T21:03:08.966Z,38.10
2022-08-03T21:08:16.141Z,35.00
2022-08-03T21:12:55.448Z,17.20
2022-08-03T21:13:30.008Z,38.80
2022-08-03T21:18:43.738Z,36.10
2022-08-03T21:23:50.772Z,36.50
2022-08-03T21:28:56.279Z,34.30
2022-08-03T21:34:02.088Z,40.90
2022-08-03T21:39:08.674Z,36.00
2022-08-03T21:44:12.502Z,36.30
2022-08-03T21:50:02.589Z,37.50
2022-08-03T21:54:42.990Z,35.30
2022-08-03T21:59:56.349Z,39.80
2022-08-03T22:05:04.958Z,34.90
2022-08-03T22:10:14.623Z,36.30
2022-08-03T22:15:18.446Z,36.50
2022-08-03T22:20:24.374Z,40.50
2022-08-03T22:25:31.073Z,36.70
2022-08-03T22:30:35.683Z,38.10
2022-08-03T22:35:47.264Z,38.30
2022-08-03T22:40:52.730Z,36.70
2022-08-03T22:46:09.363Z,34.90
2022-08-03T22:51:16.460Z,37.80
2022-08-03T22:56:20.281Z,38.40
2022-08-03T23:01:25.185Z,40.00
2022-08-03T23:06:34.510Z,39.30
2022-08-03T23:11:45.985Z,39.10
2022-08-03T23:16:54.951Z,37.40
2022-08-03T23:22:03.222Z,36.40
2022-08-03T23:27:09.745Z,38.20
2022-08-03T23:32:15.685Z,35.10
2022-08-03T23:37:21.420Z,40.20
2022-08-03T23:42:27.415Z,41.40
2022-08-03T23:47:45.943Z,41.30
2022-08-03T23:52:59.457Z,38.50
2022-08-03T23:58:15.046Z,36.30
